EST,Max TemperatureF,Mean TemperatureF,Min TemperatureF,Max Dew PointF,MeanDew PointF,Min DewpointF,Max Humidity, Mean Humidity, Min Humidity, Max Sea Level PressureIn, Mean Sea Level PressureIn, Min Sea Level PressureIn, Max VisibilityMiles, Mean VisibilityMiles, Min VisibilityMiles, Max Wind SpeedMPH, Mean Wind SpeedMPH, Max Gust SpeedMPH,PrecipitationIn, CloudCover, Events, WindDirDegrees
2013-1-1,39,36,32,28,26,20,70,63,60,30.03,29.96,29.91,10,10,9,12,6,20,0.00,5,,265
2013-1-2,30,28,25,18,12,10,61,53,42,30.24,30.14,30.01,10,10,10,9,3,18,0.00,0,,277
2013-1-3,34,24,15,18,14,10,80,60,48,30.25,30.20,30.14,10,10,7,8,2,16,0.00,1,,225
2013-1-4,37,34,30,20,18,17,64,55,48,30.18,30.13,30.08,10,10,10,13,6,25,0.00,4,,250
2013-1-5,37,32,28,24,19,17,76,59,50,30.36,30.26,30.11,10,10,7,10,4,16,0.00,1,,258
2013-1-6,43,36,30,27,24,22,79,60,47,30.15,30.10,30.02,10,10,8,9,2,20,0.00,6,,230
2013-1-7,39,32,26,27,24,21,81,66,55,30.43,30.35,30.14,10,8,5,7,3,,0.00,5,,270
2013-1-8,48,38,28,29,25,22,79,66,38,30.41,30.38,30.35,10,9,6,10,2,,0.00,0,,250
2013-1-9,55,42,30,39,30,25,82,64,42,30.37,30.31,30.21,10,9,6,15,3,26,0.00,2,,239
2013-1-10,46,42,37,29,26,23,68,54,39,30.55,30.49,30.37,10,10,10,8,4,,0.00,0,,270
2013-1-11,42,40,37,38,32,27,89,76,57,30.49,30.25,30.10,10,5,0,5,0,,0.30,6,Fog-Rain,73
2013-1-12,55,47,39,44,39,35,93,83,64,30.17,30.12,30.06,10,4,0,4,1,,0.00,5,Fog,15
2013-1-13,54,48,42,49,45,39,89,86,81,30.10,30.03,29.94,9,2,0,5,0,,0.00,8,Fog,33
2013-1-14,57,48,39,54,40,25,94,70,44,30.30,30.13,29.94,10,7,0,8,2,,0.19,7,Fog-Rain,306
2013-1-15,39,37,35,34,29,26,82,72,60,30.35,30.23,30.14,10,7,2,7,2,,0.37,8,Rain,51
2013-1-16,44,38,33,35,31,28,87,80,68,30.14,30.00,29.84,10,5,1,9,2,,0.47,7,Rain,34
2013-1-17,44,40,36,31,27,22,76,59,47,30.12,30.06,29.98,10,10,7,9,4,,0.00,1,,294
2013-1-18,37,32,27,23,12,6,66,48,35,30.48,30.40,30.11,10,10,10,8,5,21,0.00,1,,292
2013-1-19,54,41,28,26,22,19,67,46,30,30.37,30.16,29.88,10,10,10,10,4,18,0.00,0,,214
2013-1-20,52,42,32,28,17,11,44,34,23,30.07,29.90,29.76,10,10,10,17,11,30,0.00,0,,263
2013-1-21,37,30,23,19,13,7,58,51,43,30.09,29.98,29.84,10,10,9,13,3,23,0.00,6,,289
2013-1-22,19,16,12,3,-4,-7,54,43,33,30.30,30.17,29.99,10,10,10,13,8,25,0.00,2,,291
2013-1-23,21,16,10,2,-2,-4,59,47,35,30.35,30.26,30.17,10,10,10,10,3,18,0.00,5,,254
2013-1-24,24,19,14,9,2,-3,79,52,32,30.52,30.35,30.08,10,8,2,14,3,21,0.00,3,Snow,11
2013-1-25,19,17,15,13,5,-2,81,63,45,30.51,30.29,30.05,10,7,0,4,1,,0.09,5,Snow,260
2013-1-26,27,22,16,20,15,12,84,76,63,30.45,30.25,30.02,10,6,2,7,1,,0.00,6,Snow,260
2013-1-27,32,25,18,19,16,11,77,64,47,30.59,30.51,30.38,10,8,2,5,1,,0.00,3,Snow,275
2013-1-28,48,34,28,42,30,19,93,86,67,30.46,30.17,30.01,8,3,0,5,1,,0.10,8,Fog-Rain-Snow,247
2013-1-29,66,56,46,52,48,42,83,74,60,30.10,30.03,29.95,10,10,9,8,2,,0.00,4,,255
2013-1-30,68,60,51,58,53,47,100,88,70,29.87,29.52,29.24,10,4,1,15,3,31,0.55,7,Rain,242
2013-1-31,54,41,28,52,28,7,96,62,38,29.87,29.51,29.15,10,8,2,23,8,39,0.55,6,Rain-Snow,254